Terminal Aerodrome Forecast
Issued by NWS

Home | Current Version | Previous Version | Text Only | Print | Product List | Glossary On
Versions: 1 2 3 4 5 6 7 8 9 10 11 12 13
000
FTUS46 KMTR 182339
TAFSJC
TAF
KSJC 182339Z 1900/1924 11022G31KT P6SM -RA FEW012 BKN045 OVC150
     FM190400 14018G25KT 6SM -RA BR OVC040
     FM190700 14012KT 6SM -SHRA BKN015 OVC025
     FM190900 12009KT P6SM SCT030 BKN080
     FM192000 31009KT P6SM SCT050 BKN080=

USA.gov is the U.S. government's official web portal to all federal, state and local government web resources and services.